Terminal Aerodrome Forecast
Issued by NWS

Home | Current Version | Previous Version | Text Only | Print | Product List | Glossary On
Versions: 1 2 3 4 5 6 7 8 9 10 11 12 13 14 15 16 17 18 19 20
000
FTUS45 KBOI 191120
TAFMYL
TAF
KMYL 191120Z 1912/2012 35006KT P6SM VCSH SCT020
     FM191800 34011G18KT P6SM VCSH SCT025 BKN035
     FM200200 34006KT P6SM FEW020=

USA.gov is the U.S. government's official web portal to all federal, state and local government web resources and services.